createdAt,value
2019-01-15T00:01:15.731Z,100635.45
2019-01-15T00:03:44.381Z,100636.94
2019-01-15T00:06:12.994Z,100635.34
2019-01-15T00:08:42.803Z,100641.00
2019-01-15T00:11:11.236Z,100637.59
2019-01-15T00:13:40.677Z,100638.73
2019-01-15T00:16:09.362Z,100637.75
2019-01-15T00:18:41.405Z,100645.51
2019-01-15T00:21:11.061Z,100650.77
2019-01-15T00:23:42.333Z,100647.13
2019-01-15T00:26:11.554Z,100642.91
2019-01-15T00:28:40.621Z,100641.11
2019-01-15T00:31:09.196Z,100641.96
2019-01-15T00:33:38.157Z,100639.66
2019-01-15T00:36:06.965Z,100634.61
2019-01-15T00:38:35.653Z,100633.01
2019-01-15T00:41:04.243Z,100637.18
2019-01-15T00:43:33.905Z,100633.82
2019-01-15T00:46:02.408Z,100629.54
2019-01-15T00:48:31.291Z,100633.53
2019-01-15T00:50:59.758Z,100636.23
2019-01-15T00:53:28.741Z,100636.66
2019-01-15T00:55:57.922Z,100645.05
2019-01-15T00:58:28.326Z,100635.31
2019-01-15T01:00:58.170Z,100638.49
2019-01-15T01:03:26.895Z,100638.59
2019-01-15T01:05:55.535Z,100644.86
2019-01-15T01:08:24.360Z,100644.97
2019-01-15T01:10:55.546Z,100641.66
2019-01-15T01:13:24.200Z,100642.98
2019-01-15T01:15:52.805Z,100650.87
2019-01-15T01:18:22.868Z,100654.53
2019-01-15T01:20:51.593Z,100643.11
2019-01-15T01:23:19.972Z,100652.09
2019-01-15T01:25:51.152Z,100660.61
2019-01-15T01:28:20.095Z,100657.16
2019-01-15T01:30:49.882Z,100657.16
2019-01-15T01:33:19.348Z,100655.42
2019-01-15T01:35:50.843Z,100656.34
2019-01-15T01:38:21.328Z,100653.22
2019-01-15T01:40:50.147Z,100663.56
2019-01-15T01:43:18.643Z,100663.56
2019-01-15T01:45:48.296Z,100667.44
2019-01-15T01:48:17.194Z,100663.78
2019-01-15T01:50:48.277Z,100659.19
2019-01-15T01:53:17.637Z,100665.86
2019-01-15T01:55:46.415Z,100664.70
2019-01-15T01:58:14.931Z,100655.20
2019-01-15T02:00:44.178Z,100649.30
2019-01-15T02:03:16.328Z,100647.45
2019-01-15T02:05:47.966Z,100642.10
2019-01-15T02:08:16.690Z,100645.93
2019-01-15T02:10:44.943Z,100650.02
2019-01-15T02:13:13.434Z,100651.23
2019-01-15T02:15:42.092Z,100647.66
2019-01-15T02:18:11.729Z,100647.66
2019-01-15T02:20:41.478Z,100636.12
2019-01-15T02:23:10.430Z,100630.27
2019-01-15T02:25:42.161Z,100629.96
2019-01-15T02:28:12.680Z,100618.59
2019-01-15T02:30:45.690Z,100612.38
2019-01-15T02:33:14.419Z,100615.28
2019-01-15T02:35:43.818Z,100625.07
2019-01-15T02:38:12.514Z,100627.78
2019-01-15T02:40:41.310Z,100629.16
2019-01-15T02:43:10.186Z,100629.30
2019-01-15T02:45:41.420Z,100625.48
2019-01-15T02:48:09.767Z,100617.72
2019-01-15T02:50:42.046Z,100617.72
2019-01-15T02:53:10.606Z,100613.70
2019-01-15T02:55:40.345Z,100619.11
2019-01-15T02:58:10.040Z,100617.94
2019-01-15T03:00:39.941Z,100613.91
2019-01-15T03:03:09.337Z,100613.91
2019-01-15T03:05:38.541Z,100615.23
2019-01-15T03:08:07.209Z,100611.64
2019-01-15T03:10:36.350Z,100614.49
2019-01-15T03:13:05.119Z,100611.59
2019-01-15T03:15:33.715Z,100621.02
2019-01-15T03:18:03.396Z,100617.55
2019-01-15T03:20:32.893Z,100612.40
2019-01-15T03:23:02.807Z,100614.03
2019-01-15T03:25:31.444Z,100610.47
2019-01-15T03:28:01.752Z,100609.91
2019-01-15T03:30:30.911Z,100605.80
2019-01-15T03:33:00.727Z,100608.88
2019-01-15T03:35:29.878Z,100604.80
2019-01-15T03:37:58.419Z,100596.39
2019-01-15T03:40:27.213Z,100596.39
2019-01-15T03:43:03.167Z,100604.09
2019-01-15T03:45:27.368Z,100606.79
2019-01-15T03:47:56.000Z,100603.83
2019-01-15T03:50:24.498Z,100608.02
2019-01-15T03:52:53.954Z,100610.11
2019-01-15T03:55:23.273Z,100598.58
2019-01-15T03:57:52.199Z,100608.83
2019-01-15T04:00:22.795Z,100610.26
2019-01-15T04:02:56.391Z,100606.55
2019-01-15T04:05:25.449Z,100606.55
2019-01-15T04:07:56.042Z,100610.88
2019-01-15T04:10:25.808Z,100600.02
2019-01-15T04:12:54.210Z,100595.12
2019-01-15T04:15:23.670Z,100595.12
2019-01-15T04:17:55.364Z,100590.02
2019-01-15T04:20:24.410Z,100594.61
2019-01-15T04:22:55.873Z,100593.47
2019-01-15T04:25:24.592Z,100597.82
2019-01-15T04:27:53.052Z,100597.82
2019-01-15T04:30:22.916Z,100589.64
2019-01-15T04:32:51.896Z,100590.00
2019-01-15T04:35:20.820Z,100580.00
2019-01-15T04:37:49.883Z,100580.00
2019-01-15T04:40:20.030Z,100585.30
2019-01-15T04:42:49.218Z,100595.61
2019-01-15T04:45:19.840Z,100594.42
2019-01-15T04:47:48.345Z,100588.45
2019-01-15T04:50:16.908Z,100581.11
2019-01-15T04:52:51.288Z,100584.42
2019-01-15T04:55:19.801Z,100579.86
2019-01-15T04:57:49.696Z,100572.70
2019-01-15T05:00:19.436Z,100574.44
2019-01-15T05:02:49.013Z,100576.22
2019-01-15T05:05:17.800Z,100560.22
2019-01-15T05:07:50.198Z,100567.38
2019-01-15T05:10:19.348Z,100562.01
2019-01-15T05:12:51.326Z,100559.35
2019-01-15T05:19:31.510Z,100556.17
2019-01-15T05:22:01.230Z,100553.94
2019-01-15T05:24:31.484Z,100550.61
2019-01-15T05:27:00.889Z,100547.78
2019-01-15T05:29:30.687Z,100545.64
2019-01-15T05:31:59.234Z,100550.02
2019-01-15T05:34:28.787Z,100533.73
2019-01-15T05:36:58.184Z,100532.73
2019-01-15T05:39:28.299Z,100530.86
2019-01-15T05:41:56.684Z,100530.03
2019-01-15T05:44:28.382Z,100527.03
2019-01-15T05:46:57.226Z,100517.45
2019-01-15T05:49:26.615Z,100506.14
2019-01-15T05:51:55.176Z,100500.93
2019-01-15T05:54:23.988Z,100498.66
2019-01-15T05:56:52.822Z,100499.06
2019-01-15T05:59:24.306Z,100507.73
2019-01-15T06:01:54.580Z,100501.96
2019-01-15T06:04:23.647Z,100496.89
2019-01-15T06:06:55.172Z,100506.58
2019-01-15T06:09:24.318Z,100501.67
2019-01-15T06:11:55.603Z,100492.36
2019-01-15T06:14:25.372Z,100489.73
2019-01-15T06:16:54.669Z,100484.30
2019-01-15T06:19:26.474Z,100481.23
2019-01-15T06:21:57.217Z,100474.48
2019-01-15T06:24:38.442Z,100481.45
2019-01-15T06:27:21.382Z,100484.13
2019-01-15T06:29:51.718Z,100490.10
2019-01-15T06:32:22.671Z,100488.45
2019-01-15T06:34:52.699Z,100487.14
2019-01-15T06:37:21.873Z,100479.09
2019-01-15T06:39:51.105Z,100492.58
2019-01-15T06:42:22.255Z,100487.13
2019-01-15T06:44:54.617Z,100483.26
2019-01-15T06:47:24.045Z,100485.66
2019-01-15T06:49:52.553Z,100480.73
2019-01-15T06:52:21.085Z,100484.61
2019-01-15T06:54:50.390Z,100495.70
2019-01-15T06:57:18.974Z,100484.28
2019-01-15T06:59:47.464Z,100473.19
2019-01-15T07:02:18.003Z,100476.61
2019-01-15T07:04:46.938Z,100469.05
2019-01-15T07:07:16.548Z,100485.22
2019-01-15T07:09:45.503Z,100477.18
2019-01-15T07:12:14.565Z,100472.94
2019-01-15T07:14:44.729Z,100470.79
2019-01-15T07:17:13.977Z,100468.31
2019-01-15T07:19:43.898Z,100472.33
2019-01-15T07:22:14.133Z,100477.30
2019-01-15T07:24:46.638Z,100479.55
2019-01-15T07:27:16.206Z,100476.58
2019-01-15T07:29:45.816Z,100466.35
2019-01-15T07:32:14.986Z,100464.81
2019-01-15T07:34:44.723Z,100466.66
2019-01-15T07:37:14.744Z,100461.39
2019-01-15T07:39:43.486Z,100470.87
2019-01-15T07:42:13.031Z,100461.54
2019-01-15T07:44:44.520Z,100464.28
2019-01-15T07:47:17.704Z,100465.70
2019-01-15T07:49:47.249Z,100469.50
2019-01-15T07:52:18.564Z,100468.30
2019-01-15T07:54:47.175Z,100469.58
2019-01-15T07:57:19.491Z,100470.09
2019-01-15T07:59:48.896Z,100461.11
2019-01-15T08:02:19.079Z,100465.44
2019-01-15T08:04:52.240Z,100462.53
2019-01-15T08:07:21.414Z,100460.04
2019-01-15T08:09:51.117Z,100463.12
2019-01-15T08:12:19.781Z,100464.84
2019-01-15T08:14:49.381Z,100466.68
2019-01-15T08:17:17.753Z,100464.50
2019-01-15T08:19:46.678Z,100467.20
2019-01-15T08:22:16.117Z,100460.91
2019-01-15T08:24:45.276Z,100453.53
2019-01-15T08:27:14.150Z,100453.73
2019-01-15T08:29:43.208Z,100464.88
2019-01-15T08:32:15.128Z,100458.34
2019-01-15T08:34:44.210Z,100457.19
2019-01-15T08:37:14.143Z,100462.38
2019-01-15T08:39:45.685Z,100452.08
2019-01-15T08:42:14.410Z,100453.73
2019-01-15T08:44:44.909Z,100449.74
2019-01-15T08:47:14.168Z,100458.28
2019-01-15T08:49:47.619Z,100451.44
2019-01-15T08:52:16.861Z,100448.05
2019-01-15T08:54:45.355Z,100450.19
2019-01-15T08:57:14.340Z,100448.56
2019-01-15T08:59:43.433Z,100449.90
2019-01-15T09:02:13.739Z,100449.58
2019-01-15T09:04:42.927Z,100453.28
2019-01-15T09:07:11.444Z,100453.66
2019-01-15T09:09:39.746Z,100449.62
2019-01-15T09:12:08.394Z,100455.58
2019-01-15T09:14:37.210Z,100453.31
2019-01-15T09:17:11.019Z,100452.05
2019-01-15T09:19:37.538Z,100444.48
2019-01-15T09:22:07.172Z,100447.20
2019-01-15T09:24:35.628Z,100445.77
2019-01-15T09:27:04.377Z,100441.95
2019-01-15T09:29:35.694Z,100438.28
2019-01-15T09:32:06.458Z,100431.97
2019-01-15T09:34:35.204Z,100433.72
2019-01-15T09:37:09.163Z,100427.73
2019-01-15T09:39:45.607Z,100428.20
2019-01-15T09:42:21.705Z,100424.80
2019-01-15T09:44:51.817Z,100427.86
2019-01-15T09:47:20.324Z,100430.70
2019-01-15T09:49:48.934Z,100427.27
2019-01-15T09:52:20.444Z,100423.11
2019-01-15T09:54:48.612Z,100420.81
2019-01-15T09:57:17.654Z,100417.91
2019-01-15T09:59:46.873Z,100421.84
2019-01-15T10:02:15.609Z,100421.28
2019-01-15T10:04:45.285Z,100415.80
2019-01-15T10:07:14.886Z,100420.98
2019-01-15T10:09:45.349Z,100423.16
2019-01-15T10:12:14.031Z,100415.95
2019-01-15T10:14:43.420Z,100410.78
2019-01-15T10:17:12.236Z,100406.54
2019-01-15T10:19:40.586Z,100405.28
2019-01-15T10:22:09.224Z,100405.87
2019-01-15T10:24:38.547Z,100407.62
2019-01-15T10:27:07.602Z,100400.05
2019-01-15T10:29:37.029Z,100406.36
2019-01-15T10:32:37.575Z,100407.73
2019-01-15T10:35:20.923Z,100400.48
2019-01-15T10:37:50.826Z,100394.00
2019-01-15T10:40:19.697Z,100395.28
2019-01-15T10:42:48.498Z,100391.97
2019-01-15T10:45:17.828Z,100396.69
2019-01-15T10:47:47.534Z,100387.31
2019-01-15T10:50:20.900Z,100392.87
2019-01-15T10:52:49.497Z,100394.57
2019-01-15T10:55:18.801Z,100384.25
2019-01-15T10:57:47.153Z,100389.09
2019-01-15T11:00:15.974Z,100390.38
2019-01-15T11:02:45.049Z,100378.83
2019-01-15T11:05:14.251Z,100373.31
2019-01-15T11:07:44.330Z,100371.57
2019-01-15T11:10:14.311Z,100382.34
2019-01-15T11:12:45.740Z,100376.39
2019-01-15T11:15:14.372Z,100364.48
2019-01-15T11:17:42.849Z,100373.00
2019-01-15T11:20:13.084Z,100379.36
2019-01-15T11:22:41.581Z,100376.83
2019-01-15T11:25:11.460Z,100368.71
2019-01-15T11:27:40.829Z,100369.16
2019-01-15T11:30:10.957Z,100357.66
2019-01-15T11:32:40.747Z,100362.11
2019-01-15T11:35:10.873Z,100357.79
2019-01-15T11:37:40.787Z,100354.86
2019-01-15T11:40:09.348Z,100349.25
2019-01-15T11:42:37.813Z,100349.33
2019-01-15T11:45:07.979Z,100348.53
2019-01-15T11:47:36.421Z,100346.42
2019-01-15T11:50:11.743Z,100345.95
2019-01-15T11:52:40.151Z,100351.91
2019-01-15T11:55:10.678Z,100346.34
2019-01-15T11:57:39.447Z,100342.20
2019-01-15T12:00:14.108Z,100340.55
2019-01-15T12:02:54.259Z,100335.45
2019-01-15T12:05:45.212Z,100333.38
2019-01-15T12:08:33.534Z,100328.22
2019-01-15T12:11:21.040Z,100329.66
2019-01-15T12:14:19.054Z,100318.55
2019-01-15T12:17:08.126Z,100311.22
2019-01-15T12:20:16.423Z,100313.43
2019-01-15T12:23:11.492Z,100299.23
2019-01-15T12:26:03.100Z,100293.28
2019-01-15T12:28:46.196Z,100293.83
2019-01-15T12:31:34.623Z,100291.69
2019-01-15T12:34:23.044Z,100292.96
2019-01-15T12:37:14.315Z,100297.13
2019-01-15T12:40:00.006Z,100295.44
2019-01-15T12:42:47.668Z,100304.03
2019-01-15T12:45:45.611Z,100308.77
2019-01-15T12:48:43.887Z,100297.55
2019-01-15T12:51:42.180Z,100308.37
2019-01-15T12:54:26.970Z,100300.66
2019-01-15T12:57:31.253Z,100305.66
2019-01-15T13:00:35.338Z,100297.95
2019-01-15T13:03:33.362Z,100298.36
2019-01-15T13:06:40.282Z,100303.23
2019-01-15T13:09:45.414Z,100299.78
2019-01-15T13:12:36.379Z,100304.77
2019-01-15T13:15:34.685Z,100305.61
2019-01-15T13:18:23.218Z,100294.44
2019-01-15T13:21:10.484Z,100285.89
2019-01-15T13:24:00.208Z,100290.23
2019-01-15T13:26:48.615Z,100282.94
2019-01-15T13:29:56.467Z,100293.63
2019-01-15T13:32:45.538Z,100294.47
2019-01-15T13:35:46.167Z,100287.67
2019-01-15T13:38:41.306Z,100286.02
2019-01-15T13:41:23.047Z,100282.67
2019-01-15T13:44:11.616Z,100275.79
2019-01-15T13:47:10.222Z,100285.64
2019-01-15T13:49:58.945Z,100271.91
2019-01-15T13:52:46.200Z,100271.03
2019-01-15T13:55:35.014Z,100270.61
2019-01-15T13:58:12.445Z,100266.40
2019-01-15T14:00:54.566Z,100253.98
2019-01-15T14:03:46.394Z,100252.26
2019-01-15T14:06:37.526Z,100249.36
2019-01-15T14:09:32.877Z,100254.01
2019-01-15T14:12:36.944Z,100261.23
2019-01-15T14:15:41.170Z,100253.44
2019-01-15T14:18:34.036Z,100258.98
2019-01-15T14:21:23.473Z,100256.84
2019-01-15T14:24:15.520Z,100246.12
2019-01-15T14:27:09.106Z,100245.20
2019-01-15T14:30:04.588Z,100241.75
2019-01-15T14:32:58.606Z,100244.41
2019-01-15T14:35:45.962Z,100239.20
2019-01-15T14:38:53.097Z,100241.78
2019-01-15T14:41:40.145Z,100238.76
2019-01-15T14:44:43.902Z,100244.84
2019-01-15T14:47:48.291Z,100240.95
2019-01-15T14:50:33.505Z,100245.21
2019-01-15T14:53:20.464Z,100233.24
2019-01-15T14:56:24.116Z,100232.77
2019-01-15T14:59:11.683Z,100246.11
2019-01-15T15:02:04.991Z,100234.52
2019-01-15T15:05:00.763Z,100229.38
2019-01-15T15:07:53.133Z,100226.39
2019-01-15T15:10:41.130Z,100230.61
2019-01-15T15:13:33.307Z,100237.94
2019-01-15T15:16:26.711Z,100238.39
2019-01-15T15:19:15.892Z,100236.20
2019-01-15T15:22:13.222Z,100240.10
2019-01-15T15:25:00.849Z,100241.34
2019-01-15T15:27:43.357Z,100250.77
2019-01-15T15:30:34.077Z,100249.48
2019-01-15T15:33:24.304Z,100240.50
2019-01-15T15:36:14.141Z,100239.17
2019-01-15T15:38:57.954Z,100243.91
2019-01-15T15:41:45.653Z,100241.75
2019-01-15T15:44:34.185Z,100243.00
2019-01-15T15:47:24.022Z,100243.45
2019-01-15T15:50:24.879Z,100240.45
2019-01-15T15:53:12.960Z,100237.87
2019-01-15T15:56:03.493Z,100232.27
2019-01-15T15:58:51.570Z,100236.14
2019-01-15T16:01:36.889Z,100238.67
2019-01-15T16:04:25.921Z,100237.41
2019-01-15T16:07:32.423Z,100229.68
2019-01-15T16:10:29.707Z,100236.11
2019-01-15T16:13:17.301Z,100234.81
2019-01-15T16:16:03.980Z,100236.54
2019-01-15T16:19:07.492Z,100236.52
2019-01-15T16:22:00.290Z,100235.70
2019-01-15T16:24:54.652Z,100242.12
2019-01-15T16:27:41.082Z,100240.00
2019-01-15T16:30:28.219Z,100242.09
2019-01-15T16:33:23.876Z,100237.41
2019-01-15T16:36:23.652Z,100239.55
2019-01-15T16:39:12.165Z,100245.12
2019-01-15T16:42:01.361Z,100246.45
2019-01-15T16:44:44.802Z,100236.58
2019-01-15T16:47:23.140Z,100233.16
2019-01-15T16:50:02.930Z,100233.66
2019-01-15T16:52:54.493Z,100228.03
2019-01-15T16:55:43.723Z,100225.43
2019-01-15T16:58:50.482Z,100222.05
2019-01-15T17:01:47.443Z,100218.60
2019-01-15T17:04:49.388Z,100211.80
2019-01-15T17:07:38.386Z,100214.34
2019-01-15T17:10:36.664Z,100210.50
2019-01-15T17:13:28.073Z,100211.73
2019-01-15T17:16:33.326Z,100209.64
2019-01-15T17:19:29.052Z,100211.79
2019-01-15T17:22:26.379Z,100207.52
2019-01-15T17:25:22.004Z,100208.39
2019-01-15T17:28:03.435Z,100207.92
2019-01-15T17:31:10.058Z,100210.11
2019-01-15T17:34:07.787Z,100212.70
2019-01-15T17:37:12.883Z,100217.87
2019-01-15T17:40:03.450Z,100215.72
2019-01-15T17:43:02.420Z,100213.13
2019-01-15T17:45:52.280Z,100214.02
2019-01-15T17:48:56.740Z,100215.30
2019-01-15T17:51:44.168Z,100218.73
2019-01-15T17:54:48.837Z,100220.44
2019-01-15T17:57:35.886Z,100217.94
2019-01-15T18:00:25.190Z,100215.30
2019-01-15T18:03:17.980Z,100212.75
2019-01-15T18:06:12.405Z,100215.73
2019-01-15T18:08:58.953Z,100215.34
2019-01-15T18:12:02.915Z,100210.19
2019-01-15T18:14:54.465Z,100208.95
2019-01-15T18:17:49.509Z,100213.63
2019-01-15T18:20:40.487Z,100207.62
2019-01-15T18:23:39.088Z,100200.36
2019-01-15T18:26:30.138Z,100209.81
2019-01-15T18:29:18.734Z,100209.80
2019-01-15T18:32:23.818Z,100211.08
2019-01-15T18:35:16.366Z,100210.22
2019-01-15T18:38:10.452Z,100214.11
2019-01-15T18:41:06.074Z,100208.11
2019-01-15T18:43:55.383Z,100210.27
2019-01-15T18:46:45.309Z,100209.80
2019-01-15T18:49:35.034Z,100210.20
2019-01-15T18:52:24.432Z,100215.42
2019-01-15T18:55:22.672Z,100215.88
2019-01-15T18:58:31.110Z,100216.29
2019-01-15T19:01:25.535Z,100215.41
2019-01-15T19:04:15.152Z,100224.00
2019-01-15T19:07:03.050Z,100207.73
2019-01-15T19:10:01.363Z,100209.44
2019-01-15T19:12:51.957Z,100215.85
2019-01-15T19:15:43.945Z,100210.30
2019-01-15T19:18:41.323Z,100213.70
2019-01-15T19:21:50.951Z,100217.98
2019-01-15T19:24:57.419Z,100214.59
2019-01-15T19:28:06.077Z,100214.54
2019-01-15T19:31:12.766Z,100215.85
2019-01-15T19:34:04.142Z,100209.87
2019-01-15T19:37:11.613Z,100209.43
2019-01-15T19:40:10.307Z,100208.17
2019-01-15T19:42:58.349Z,100209.43
2019-01-15T19:45:56.937Z,100209.05
2019-01-15T19:48:41.428Z,100212.42
2019-01-15T19:51:38.673Z,100214.14
2019-01-15T19:54:33.449Z,100216.70
2019-01-15T19:57:17.431Z,100216.29
2019-01-15T20:00:06.468Z,100217.56
2019-01-15T20:02:55.646Z,100213.70
2019-01-15T20:05:46.993Z,100215.85
2019-01-15T20:08:37.264Z,100224.80
2019-01-15T20:11:24.693Z,100223.48
2019-01-15T20:14:22.040Z,100218.29
2019-01-15T20:17:18.348Z,100220.86
2019-01-15T20:20:02.778Z,100214.40
2019-01-15T20:22:51.126Z,100222.52
2019-01-15T20:25:36.305Z,100232.83
2019-01-15T20:28:47.241Z,100228.56
2019-01-15T20:31:36.636Z,100227.27
2019-01-15T20:34:22.346Z,100231.98
2019-01-15T20:37:09.984Z,100222.11
2019-01-15T20:39:59.146Z,100228.09
2019-01-15T20:43:03.291Z,100215.19
2019-01-15T20:45:57.809Z,100219.94
2019-01-15T20:48:49.398Z,100225.49
2019-01-15T20:51:46.710Z,100228.12
2019-01-15T20:54:32.176Z,100226.84
2019-01-15T20:57:32.195Z,100228.58
2019-01-15T21:00:19.629Z,100226.01
2019-01-15T21:03:25.790Z,100231.59
2019-01-15T21:06:30.318Z,100229.47
2019-01-15T21:09:19.015Z,100234.61
2019-01-15T21:12:11.823Z,100234.20
2019-01-15T21:15:11.215Z,100230.73
2019-01-15T21:18:02.888Z,100229.00
2019-01-15T21:20:57.248Z,100223.91
2019-01-15T21:23:46.232Z,100219.64
2019-01-15T21:26:31.582Z,100223.51
2019-01-15T21:29:46.269Z,100218.37
2019-01-15T21:32:38.419Z,100217.94
2019-01-15T21:35:27.173Z,100216.21
2019-01-15T21:38:22.608Z,100219.17
2019-01-15T21:41:30.291Z,100217.89
2019-01-15T21:44:20.783Z,100223.45
2019-01-15T21:47:09.774Z,100217.47
2019-01-15T21:50:17.027Z,100215.29
2019-01-15T21:53:03.854Z,100215.30
2019-01-15T21:55:42.997Z,100215.34
2019-01-15T21:58:29.246Z,100219.15
2019-01-15T22:01:16.718Z,100221.77
2019-01-15T22:04:14.598Z,100214.04
2019-01-15T22:07:21.691Z,100217.45
2019-01-15T22:10:11.668Z,100211.47
2019-01-15T22:12:53.298Z,100212.29
2019-01-15T22:15:41.231Z,100213.14
2019-01-15T22:18:27.961Z,100214.02
2019-01-15T22:21:25.837Z,100208.88
2019-01-15T22:24:14.469Z,100211.42
2019-01-15T22:27:04.563Z,100211.44
2019-01-15T22:29:51.381Z,100202.45
2019-01-15T22:32:46.826Z,100205.44
2019-01-15T22:35:42.719Z,100199.87
2019-01-15T22:38:40.897Z,100192.61
2019-01-15T22:41:35.697Z,100192.18
2019-01-15T22:44:24.773Z,100183.16
2019-01-15T22:47:13.023Z,100185.32
2019-01-15T22:50:02.413Z,100188.73
2019-01-15T22:52:52.309Z,100181.06
2019-01-15T22:55:34.014Z,100184.03
2019-01-15T22:58:25.539Z,100180.64
2019-01-15T23:01:15.841Z,100175.43
2019-01-15T23:04:08.108Z,100180.16
2019-01-15T23:06:59.546Z,100174.14
2019-01-15T23:09:48.707Z,100179.30
2019-01-15T23:12:38.088Z,100171.98
2019-01-15T23:15:42.317Z,100170.73
2019-01-15T23:18:46.045Z,100171.98
2019-01-15T23:21:52.327Z,100168.12
2019-01-15T23:24:57.452Z,100167.64
2019-01-15T23:28:01.169Z,100156.56
2019-01-15T23:30:48.759Z,100156.53
2019-01-15T23:33:43.726Z,100155.66
2019-01-15T23:36:24.397Z,100152.22
2019-01-15T23:39:16.331Z,100153.95
2019-01-15T23:42:00.237Z,100139.39
2019-01-15T23:44:50.426Z,100142.38
2019-01-15T23:47:47.887Z,100145.85
2019-01-15T23:50:28.560Z,100140.73
2019-01-15T23:53:20.292Z,100138.18
2019-01-15T23:56:06.295Z,100132.17
2019-01-15T23:58:54.951Z,100134.77
